Terminal Aerodrome Forecast
Issued by NWS

Home | Current Version | Previous Version | Text Only | Print | Product List | Glossary On
Versions: 1 2 3 4 5 6 7 8 9 10 11 12 13
376
FTUS45 KRIW 301127
TAFWRL
TAF
KWRL 301127Z 3012/0112 17009KT P6SM SKC
     FM301500 VRB05KT P6SM SCT100
     FM302100 VRB05KT P6SM SCT100 BKN200
     FM010900 32012KT P6SM SCT060 BKN080=

USA.gov is the U.S. government's official web portal to all federal, state and local government web resources and services.